createdAt,value
2023-04-10T00:00:58.454Z,17.50
2023-04-10T00:01:58.647Z,16.30
2023-04-10T00:02:58.519Z,17.50
2023-04-10T00:03:58.702Z,16.70
2023-04-10T00:04:58.537Z,16.30
2023-04-10T00:05:58.578Z,16.50
2023-04-10T00:06:58.417Z,17.10
2023-04-10T00:07:58.413Z,16.70
2023-04-10T00:08:58.393Z,17.10
2023-04-10T00:09:58.434Z,17.20
2023-04-10T00:10:58.416Z,17.70
2023-04-10T00:11:58.411Z,16.50
2023-04-10T00:12:58.352Z,17.30
2023-04-10T00:13:58.393Z,17.00
2023-04-10T00:14:58.360Z,17.30
2023-04-10T00:15:58.374Z,16.20
2023-04-10T00:16:58.382Z,17.30
2023-04-10T00:17:58.387Z,16.90
2023-04-10T00:18:58.356Z,16.90
2023-04-10T00:19:58.349Z,17.90
2023-04-10T00:20:58.310Z,18.00
2023-04-10T00:21:58.340Z,17.30
2023-04-10T00:22:58.357Z,18.50
2023-04-10T00:23:58.339Z,18.00
2023-04-10T00:24:58.343Z,18.40
2023-04-10T00:25:58.309Z,16.70
2023-04-10T00:26:58.272Z,19.20
2023-04-10T00:27:58.297Z,18.40
2023-04-10T00:28:58.284Z,18.00
2023-04-10T00:29:58.279Z,18.30
2023-04-10T00:30:58.269Z,18.40
2023-04-10T00:31:58.344Z,17.60
2023-04-10T00:32:58.279Z,20.80
2023-04-10T00:33:58.258Z,18.60
2023-04-10T00:34:58.220Z,17.50
2023-04-10T00:35:58.253Z,17.50
2023-04-10T00:36:58.216Z,18.50
2023-04-10T00:37:58.238Z,20.90
2023-04-10T00:38:58.233Z,18.90
2023-04-10T00:39:58.209Z,19.30
2023-04-10T00:40:58.213Z,21.40
2023-04-10T00:41:58.193Z,17.80
2023-04-10T00:42:58.179Z,16.90
2023-04-10T00:43:58.185Z,17.20
2023-04-10T00:44:58.166Z,17.10
2023-04-10T00:45:58.263Z,17.00
2023-04-10T00:46:58.155Z,17.30
2023-04-10T00:47:58.221Z,17.40
2023-04-10T00:48:58.136Z,17.30
2023-04-10T00:49:58.140Z,19.00
2023-04-10T00:50:58.122Z,17.20
2023-04-10T00:51:58.755Z,16.50
2023-04-10T00:52:58.125Z,17.20
2023-04-10T00:53:58.133Z,17.30
2023-04-10T00:54:58.110Z,16.70
2023-04-10T00:55:58.107Z,16.30
2023-04-10T00:56:58.143Z,16.60
2023-04-10T00:57:58.109Z,17.40
2023-04-10T00:58:58.080Z,16.20
2023-04-10T00:59:58.084Z,16.40
2023-04-10T01:00:58.150Z,16.30
2023-04-10T01:01:58.182Z,16.90
2023-04-10T01:02:58.186Z,18.70
2023-04-10T01:03:58.668Z,18.80
2023-04-10T01:04:58.067Z,16.50
2023-04-10T01:05:58.065Z,16.00
2023-04-10T01:06:58.040Z,16.90
2023-04-10T01:07:58.070Z,17.50
2023-04-10T01:08:58.014Z,17.40
2023-04-10T01:09:58.057Z,20.80
2023-04-10T01:10:58.020Z,22.50
2023-04-10T01:11:58.036Z,22.90
2023-04-10T01:12:58.008Z,21.90
2023-04-10T01:13:58.001Z,22.40
2023-04-10T01:14:57.992Z,20.50
2023-04-10T01:15:57.990Z,20.40
2023-04-10T01:16:58.000Z,20.70
2023-04-10T01:17:58.008Z,21.30
2023-04-10T01:18:57.943Z,20.60
2023-04-10T01:19:57.950Z,20.10
2023-04-10T01:20:57.932Z,19.20
2023-04-10T01:21:57.949Z,19.50
2023-04-10T01:22:57.952Z,18.60
2023-04-10T01:23:57.949Z,19.10
2023-04-10T01:24:57.916Z,18.10
2023-04-10T01:25:57.914Z,19.30
2023-04-10T01:26:57.891Z,18.90
2023-04-10T01:27:57.943Z,19.80
2023-04-10T01:28:57.886Z,19.20
2023-04-10T01:29:57.888Z,20.30
2023-04-10T01:30:57.941Z,20.30
2023-04-10T01:31:57.884Z,20.20
2023-04-10T01:32:57.914Z,21.70
2023-04-10T01:33:57.912Z,19.60
2023-04-10T01:34:57.854Z,20.50
2023-04-10T01:35:57.883Z,21.00
2023-04-10T01:36:57.853Z,19.50
2023-04-10T01:37:57.840Z,20.40
2023-04-10T01:38:57.813Z,20.50
2023-04-10T01:39:57.849Z,19.20
2023-04-10T01:40:57.819Z,21.20
2023-04-10T01:41:57.814Z,20.70
2023-04-10T01:42:57.812Z,21.40
2023-04-10T01:43:57.800Z,21.90
2023-04-10T01:44:57.769Z,21.40
2023-04-10T01:45:57.922Z,21.60
2023-04-10T01:46:57.775Z,21.60
2023-04-10T01:47:57.875Z,22.50
2023-04-10T01:48:57.798Z,22.10
2023-04-10T01:49:57.770Z,22.70
2023-04-10T01:50:57.720Z,20.70
2023-04-10T01:51:57.741Z,21.40
2023-04-10T01:52:57.738Z,21.20
2023-04-10T01:53:57.750Z,21.60
2023-04-10T01:54:57.742Z,21.00
2023-04-10T01:55:57.737Z,20.80
2023-04-10T01:56:57.735Z,21.70
2023-04-10T01:57:57.703Z,20.60
2023-04-10T01:58:57.677Z,22.90
2023-04-10T01:59:57.687Z,21.60
2023-04-10T02:00:57.681Z,22.70
2023-04-10T02:01:57.764Z,24.30
2023-04-10T02:02:57.798Z,22.60
2023-04-10T02:03:58.129Z,20.30
2023-04-10T02:04:57.659Z,20.70
2023-04-10T02:05:57.665Z,20.20
2023-04-10T02:06:57.638Z,20.00
2023-04-10T02:07:57.668Z,24.00
2023-04-10T02:08:57.608Z,21.90
2023-04-10T02:09:57.624Z,22.00
2023-04-10T02:10:57.629Z,22.00
2023-04-10T02:11:57.648Z,21.80
2023-04-10T02:12:57.597Z,22.20
2023-04-10T02:13:57.638Z,22.80
2023-04-10T02:14:57.639Z,23.20
2023-04-10T02:15:57.702Z,23.10
2023-04-10T02:16:57.579Z,23.10
2023-04-10T02:17:57.633Z,24.30
2023-04-10T02:18:57.587Z,24.00
2023-04-10T02:19:57.581Z,22.40
2023-04-10T02:20:57.606Z,23.10
2023-04-10T02:21:57.608Z,25.10
2023-04-10T02:22:57.606Z,26.30
2023-04-10T02:23:57.584Z,23.60
2023-04-10T02:24:57.503Z,25.80
2023-04-10T02:25:57.592Z,24.00
2023-04-10T02:26:57.509Z,25.60
2023-04-10T02:27:57.539Z,27.80
2023-04-10T02:28:57.480Z,25.00
2023-04-10T02:29:57.512Z,23.70
2023-04-10T02:30:57.496Z,24.80
2023-04-10T02:31:57.520Z,25.30
2023-04-10T02:32:57.492Z,25.80
2023-04-10T02:33:57.472Z,25.60
2023-04-10T02:34:57.440Z,25.50
2023-04-10T02:35:57.472Z,24.90
2023-04-10T02:36:57.419Z,24.50
2023-04-10T02:37:57.445Z,24.40
2023-04-10T02:38:57.430Z,22.30
2023-04-10T02:39:57.416Z,22.80
2023-04-10T02:40:57.425Z,22.80
2023-04-10T02:41:57.397Z,23.10
2023-04-10T02:42:57.385Z,23.10
2023-04-10T02:43:57.405Z,21.90
2023-04-10T02:44:57.371Z,24.10
2023-04-10T02:45:57.405Z,23.50
2023-04-10T02:46:57.387Z,24.40
2023-04-10T02:47:57.414Z,24.20
2023-04-10T02:48:57.346Z,23.20
2023-04-10T02:49:57.353Z,23.30
2023-04-10T02:50:57.348Z,23.10
2023-04-10T02:51:57.329Z,23.80
2023-04-10T02:52:57.333Z,24.00
2023-04-10T02:53:57.353Z,25.50
2023-04-10T02:54:57.323Z,24.00
2023-04-10T02:55:57.345Z,24.00
2023-04-10T02:56:57.302Z,23.70
2023-04-10T02:57:57.302Z,22.10
2023-04-10T02:58:57.276Z,23.70
2023-04-10T02:59:57.277Z,23.50
2023-04-10T03:00:57.257Z,24.00
2023-04-10T03:01:57.387Z,22.80
2023-04-10T03:02:57.326Z,24.50
2023-04-10T03:03:57.722Z,24.10
2023-04-10T03:04:57.311Z,23.90
2023-04-10T03:05:57.251Z,24.30
2023-04-10T03:06:57.269Z,23.10
2023-04-10T03:07:57.255Z,24.80
2023-04-10T03:08:57.207Z,24.90
2023-04-10T03:09:57.234Z,25.50
2023-04-10T03:10:57.204Z,24.50
2023-04-10T03:11:57.228Z,25.00
2023-04-10T03:12:57.216Z,24.80
2023-04-10T03:13:57.205Z,24.90
2023-04-10T03:14:57.176Z,25.30
2023-04-10T03:15:57.254Z,25.40
2023-04-10T03:16:57.164Z,26.10
2023-04-10T03:17:57.226Z,26.10
2023-04-10T03:18:57.177Z,27.20
2023-04-10T03:19:57.156Z,26.00
2023-04-10T03:20:57.153Z,26.40
2023-04-10T03:21:57.162Z,25.40
2023-04-10T03:22:57.117Z,27.40
2023-04-10T03:23:57.149Z,24.80
2023-04-10T03:24:57.122Z,25.60
2023-04-10T03:25:57.135Z,26.50
2023-04-10T03:26:57.096Z,25.40
2023-04-10T03:27:57.119Z,27.50
2023-04-10T03:28:57.088Z,26.50
2023-04-10T03:29:57.093Z,26.30
2023-04-10T03:30:57.081Z,25.90
2023-04-10T03:31:57.190Z,26.20
2023-04-10T03:32:57.057Z,25.30
2023-04-10T03:33:57.287Z,27.30
2023-04-10T03:34:57.042Z,26.40
2023-04-10T03:35:57.109Z,26.80
2023-04-10T03:36:57.043Z,25.30
2023-04-10T03:37:57.036Z,26.10
2023-04-10T03:38:57.017Z,26.30
2023-04-10T03:39:57.017Z,25.40
2023-04-10T03:40:57.021Z,26.00
2023-04-10T03:41:57.028Z,25.30
2023-04-10T03:42:56.983Z,24.20
2023-04-10T03:43:57.135Z,25.80
2023-04-10T03:44:56.969Z,27.00
2023-04-10T03:45:56.976Z,27.40
2023-04-10T03:46:57.008Z,28.60
2023-04-10T03:47:57.048Z,27.00
2023-04-10T03:48:56.961Z,28.10
2023-04-10T03:49:56.947Z,25.70
2023-04-10T03:50:56.936Z,26.60
2023-04-10T03:51:56.935Z,26.40
2023-04-10T03:52:56.919Z,27.00
2023-04-10T03:53:57.073Z,27.40
2023-04-10T03:54:56.913Z,25.70
2023-04-10T03:55:56.917Z,27.40
2023-04-10T03:56:56.888Z,25.90
2023-04-10T03:57:56.902Z,24.30
2023-04-10T03:58:56.887Z,25.70
2023-04-10T03:59:56.877Z,26.10
2023-04-10T04:00:56.863Z,26.40
2023-04-10T04:01:56.939Z,24.90
2023-04-10T04:02:56.942Z,25.20
2023-04-10T04:03:57.083Z,26.10
2023-04-10T04:04:56.902Z,27.50
2023-04-10T04:05:56.850Z,26.20
2023-04-10T04:06:56.834Z,26.90
2023-04-10T04:07:56.831Z,28.70
2023-04-10T04:08:56.823Z,30.60
2023-04-10T04:09:56.819Z,33.10
2023-04-10T04:10:56.831Z,36.10
2023-04-10T04:11:56.830Z,34.00
2023-04-10T04:12:56.783Z,38.00
2023-04-10T04:13:56.820Z,42.20
2023-04-10T04:14:56.777Z,42.20
2023-04-10T04:15:56.772Z,40.50
2023-04-10T04:16:56.869Z,37.70
2023-04-10T04:17:56.818Z,37.50
2023-04-10T04:18:56.800Z,37.90
2023-04-10T04:19:56.761Z,36.30
2023-04-10T04:20:56.746Z,37.00
2023-04-10T04:21:56.746Z,37.30
2023-04-10T04:22:56.720Z,35.50
2023-04-10T04:23:56.737Z,29.40
2023-04-10T04:24:56.719Z,30.00
2023-04-10T04:25:56.717Z,28.70
2023-04-10T04:26:56.747Z,30.90
2023-04-10T04:27:56.697Z,39.80
2023-04-10T04:28:56.677Z,29.30
2023-04-10T04:29:56.681Z,42.60
2023-04-10T04:30:56.662Z,32.70
2023-04-10T04:31:56.711Z,28.40
2023-04-10T04:32:56.751Z,29.30
2023-04-10T04:33:56.696Z,26.70
2023-04-10T04:34:56.649Z,29.60
2023-04-10T04:35:56.671Z,28.20
2023-04-10T04:36:56.625Z,28.00
2023-04-10T04:37:56.652Z,27.50
2023-04-10T04:38:56.628Z,27.00
2023-04-10T04:39:56.631Z,27.20
2023-04-10T04:40:56.648Z,25.80
2023-04-10T04:41:56.597Z,28.40
2023-04-10T04:42:56.590Z,28.50
2023-04-10T04:43:56.670Z,27.50
2023-04-10T04:44:56.567Z,28.00
2023-04-10T04:45:56.620Z,28.90
2023-04-10T04:46:56.578Z,28.70
2023-04-10T04:47:56.588Z,27.90
2023-04-10T04:48:56.573Z,27.90
2023-04-10T04:49:56.569Z,26.60
2023-04-10T04:50:56.536Z,29.40
2023-04-10T04:51:56.560Z,29.00
2023-04-10T04:52:56.536Z,28.30
2023-04-10T04:53:56.688Z,27.70
2023-04-10T04:54:56.526Z,26.60
2023-04-10T04:55:56.538Z,27.10
2023-04-10T04:56:56.512Z,27.40
2023-04-10T04:57:56.489Z,25.50
2023-04-10T04:58:56.571Z,25.50
2023-04-10T04:59:56.524Z,29.30
2023-04-10T05:00:56.506Z,26.70
2023-04-10T05:01:56.663Z,24.80
2023-04-10T05:02:56.524Z,28.00
2023-04-10T05:03:56.517Z,27.00
2023-04-10T05:04:56.445Z,26.90
2023-04-10T05:05:56.509Z,27.30
2023-04-10T05:06:56.428Z,25.60
2023-04-10T05:07:56.450Z,25.40
2023-04-10T05:08:56.593Z,26.10
2023-04-10T05:09:56.414Z,26.50
2023-04-10T05:10:56.401Z,26.50
2023-04-10T05:11:56.431Z,25.10
2023-04-10T05:12:56.416Z,23.70
2023-04-10T05:13:56.399Z,24.60
2023-04-10T05:14:56.392Z,24.50
2023-04-10T05:15:56.397Z,23.70
2023-04-10T05:16:56.379Z,25.60
2023-04-10T05:17:56.518Z,25.40
2023-04-10T05:18:56.679Z,25.80
2023-04-10T05:19:56.383Z,25.00
2023-04-10T05:20:56.346Z,23.90
2023-04-10T05:21:56.374Z,23.80
2023-04-10T05:22:56.340Z,23.10
2023-04-10T05:23:56.384Z,23.10
2023-04-10T05:24:56.309Z,23.40
2023-04-10T05:25:56.339Z,23.30
2023-04-10T05:26:56.314Z,23.80
2023-04-10T05:27:56.308Z,23.10
2023-04-10T05:28:56.532Z,22.00
2023-04-10T05:29:56.293Z,22.20
2023-04-10T05:30:56.353Z,21.50
2023-04-10T05:31:56.290Z,21.60
2023-04-10T05:32:56.326Z,20.90
2023-04-10T05:33:56.276Z,21.90
2023-04-10T05:34:56.259Z,20.10
2023-04-10T05:35:56.293Z,19.90
2023-04-10T05:36:58.772Z,21.50
2023-04-10T05:37:56.247Z,20.00
2023-04-10T05:38:56.536Z,19.00
2023-04-10T05:39:56.230Z,19.70
2023-04-10T05:40:56.239Z,19.40
2023-04-10T05:41:56.226Z,19.00
2023-04-10T05:42:56.220Z,18.70
2023-04-10T05:43:56.219Z,19.00
2023-04-10T05:44:56.202Z,19.30
2023-04-10T05:45:56.246Z,18.70
2023-04-10T05:46:56.196Z,18.20
2023-04-10T05:47:56.226Z,18.30
2023-04-10T05:48:56.486Z,17.70
2023-04-10T05:49:56.173Z,17.20
2023-04-10T05:50:56.158Z,17.50
2023-04-10T05:51:56.174Z,17.50
2023-04-10T05:52:56.151Z,17.00
2023-04-10T05:53:56.161Z,17.20
2023-04-10T05:54:56.126Z,16.50
2023-04-10T05:55:56.138Z,17.10
2023-04-10T05:56:56.115Z,17.90
2023-04-10T05:57:56.134Z,16.80
2023-04-10T05:58:56.213Z,15.60
2023-04-10T05:59:56.160Z,15.60
2023-04-10T06:00:56.117Z,16.40
2023-04-10T06:01:56.155Z,15.40
2023-04-10T06:02:56.145Z,15.10
2023-04-10T06:03:56.240Z,15.60
2023-04-10T06:04:56.159Z,15.30
2023-04-10T06:05:56.086Z,14.70
2023-04-10T06:06:56.061Z,16.80
2023-04-10T06:07:58.192Z,14.80
2023-04-10T06:08:56.180Z,14.60
2023-04-10T06:09:56.080Z,14.90
2023-04-10T06:10:56.054Z,14.40
2023-04-10T06:11:56.060Z,14.70
2023-04-10T06:12:56.043Z,14.70
2023-04-10T06:13:56.039Z,13.50
2023-04-10T06:14:56.035Z,13.30
2023-04-10T06:15:56.071Z,12.20
2023-04-10T06:16:56.004Z,13.30
2023-04-10T06:17:56.025Z,13.30
2023-04-10T06:18:56.289Z,12.70
2023-04-10T06:19:55.997Z,11.30
2023-04-10T06:21:03.009Z,12.90
2023-04-10T06:21:56.011Z,12.60
2023-04-10T06:22:55.963Z,12.50
2023-04-10T06:23:56.332Z,13.10
2023-04-10T06:24:55.960Z,11.90
2023-04-10T06:25:55.985Z,12.30
2023-04-10T06:26:55.962Z,12.40
2023-04-10T06:27:55.963Z,12.10
2023-04-10T06:28:56.150Z,11.80
2023-04-10T06:29:55.961Z,12.40
2023-04-10T06:30:55.997Z,11.90
2023-04-10T06:31:55.997Z,11.30
2023-04-10T06:32:55.991Z,11.20
2023-04-10T06:33:55.930Z,11.20
2023-04-10T06:34:55.896Z,11.60
2023-04-10T06:35:55.951Z,11.10
2023-04-10T06:36:56.040Z,10.90
2023-04-10T06:37:55.874Z,10.60
2023-04-10T06:38:56.127Z,10.70
2023-04-10T06:39:55.887Z,10.50
2023-04-10T06:40:55.841Z,10.40
2023-04-10T06:41:55.891Z,10.30
2023-04-10T06:42:55.854Z,10.40
2023-04-10T06:43:55.844Z,9.60
2023-04-10T06:44:55.844Z,9.70
2023-04-10T06:45:55.834Z,9.30
2023-04-10T06:46:55.858Z,9.60
2023-04-10T06:47:55.865Z,9.90
2023-04-10T06:48:55.963Z,9.40
2023-04-10T06:49:55.827Z,9.10
2023-04-10T06:50:55.765Z,9.90
2023-04-10T06:51:55.798Z,9.50
2023-04-10T06:52:55.810Z,8.80
2023-04-10T06:53:55.776Z,9.30
2023-04-10T06:54:55.759Z,9.10
2023-04-10T06:55:55.771Z,9.70
2023-04-10T06:56:55.754Z,9.80
2023-04-10T06:57:55.758Z,9.60
2023-04-10T06:58:55.953Z,9.70
2023-04-10T06:59:55.753Z,9.00
2023-04-10T07:00:55.752Z,9.70
2023-04-10T07:01:55.756Z,9.10
2023-04-10T07:02:55.720Z,9.60
2023-04-10T07:03:55.708Z,9.30
2023-04-10T07:04:55.686Z,9.20
2023-04-10T07:05:55.667Z,9.10
2023-04-10T07:06:55.661Z,9.50
2023-04-10T07:07:55.678Z,9.60
2023-04-10T07:08:55.902Z,9.20
2023-04-10T07:09:55.661Z,9.10
2023-04-10T07:10:58.312Z,9.40
2023-04-10T07:11:55.662Z,8.70
2023-04-10T07:12:55.628Z,8.90
2023-04-10T07:13:55.622Z,9.10
2023-04-10T07:14:55.606Z,8.50
2023-04-10T07:15:55.665Z,8.70
2023-04-10T07:16:55.571Z,8.70
2023-04-10T07:17:55.622Z,9.40
2023-04-10T07:18:55.830Z,9.10
2023-04-10T07:19:55.586Z,8.90
2023-04-10T07:20:55.525Z,8.60
2023-04-10T07:21:55.563Z,8.90
2023-04-10T07:22:55.520Z,8.90
2023-04-10T07:23:55.537Z,8.90
2023-04-10T07:24:55.502Z,8.60
2023-04-10T07:25:55.529Z,9.80
2023-04-10T07:26:55.516Z,12.20
2023-04-10T07:27:55.495Z,12.60
2023-04-10T07:28:55.701Z,9.80
2023-04-10T07:29:55.480Z,8.70
2023-04-10T07:30:55.475Z,9.40
2023-04-10T07:31:55.585Z,9.30
2023-04-10T07:32:55.549Z,9.80
2023-04-10T07:33:55.457Z,12.50
2023-04-10T07:34:55.444Z,12.20
2023-04-10T07:35:55.509Z,9.90
2023-04-10T07:36:55.418Z,9.30
2023-04-10T07:37:55.440Z,8.80
2023-04-10T07:38:55.600Z,8.80
2023-04-10T07:39:55.427Z,9.00
2023-04-10T07:40:55.387Z,9.80
2023-04-10T07:41:55.386Z,9.20
2023-04-10T07:42:55.410Z,9.40
2023-04-10T07:43:55.408Z,9.60
2023-04-10T07:44:55.348Z,9.50
2023-04-10T07:45:55.362Z,10.80
2023-04-10T07:46:55.331Z,11.50
2023-04-10T07:47:55.358Z,12.20
2023-04-10T07:48:55.840Z,12.90
2023-04-10T07:49:55.312Z,12.00
2023-04-10T07:50:55.302Z,11.70
2023-04-10T07:51:55.326Z,11.10
2023-04-10T07:52:55.300Z,11.40
2023-04-10T07:53:55.288Z,12.30
2023-04-10T07:54:55.276Z,11.70
2023-04-10T07:55:55.299Z,11.90
2023-04-10T07:56:55.249Z,11.30
2023-04-10T07:57:55.273Z,12.60
2023-04-10T07:58:55.484Z,11.20
2023-04-10T07:59:55.249Z,11.40
2023-04-10T08:00:55.256Z,11.20
2023-04-10T08:01:55.274Z,11.60
2023-04-10T08:02:55.384Z,10.40
2023-04-10T08:03:55.317Z,11.20
2023-04-10T08:04:55.553Z,11.30
2023-04-10T08:05:55.234Z,10.90
2023-04-10T08:06:55.199Z,11.00
2023-04-10T08:07:55.187Z,11.50
2023-04-10T08:08:55.346Z,12.90
2023-04-10T08:09:55.171Z,11.30
2023-04-10T08:10:55.164Z,11.70
2023-04-10T08:11:55.175Z,11.80
2023-04-10T08:12:55.133Z,12.00
2023-04-10T08:13:55.246Z,12.10
2023-04-10T08:14:55.123Z,11.30
2023-04-10T08:15:55.162Z,12.10
2023-04-10T08:16:55.146Z,12.20
2023-04-10T08:17:55.197Z,11.40
2023-04-10T08:18:55.250Z,11.70
2023-04-10T08:19:55.110Z,11.90
2023-04-10T08:20:55.120Z,11.00
2023-04-10T08:21:55.077Z,11.50
2023-04-10T08:22:56.254Z,12.50
2023-04-10T08:23:55.082Z,12.10
2023-04-10T08:24:55.061Z,11.60
2023-04-10T08:25:55.074Z,12.20
2023-04-10T08:26:55.087Z,11.60
2023-04-10T08:27:55.051Z,12.40
2023-04-10T08:28:55.151Z,11.70
2023-04-10T08:29:55.018Z,11.60
2023-04-10T08:30:55.103Z,11.80
2023-04-10T08:31:55.025Z,12.20
2023-04-10T08:32:55.006Z,11.50
2023-04-10T08:33:55.355Z,11.40
2023-04-10T08:34:54.990Z,12.10
2023-04-10T08:35:55.009Z,12.30
2023-04-10T08:36:55.019Z,11.50
2023-04-10T08:38:11.678Z,11.50
2023-04-10T08:38:55.976Z,11.30
2023-04-10T08:39:54.966Z,11.60
2023-04-10T08:40:54.926Z,11.50
2023-04-10T08:41:54.949Z,12.50
2023-04-10T08:42:54.915Z,11.80
2023-04-10T08:43:55.227Z,11.70
2023-04-10T08:44:54.910Z,12.40
2023-04-10T08:45:54.962Z,12.50
2023-04-10T08:46:54.897Z,11.80
2023-04-10T08:47:54.915Z,11.90
2023-04-10T08:48:54.853Z,12.20
2023-04-10T08:49:54.874Z,12.20
2023-04-10T08:50:54.850Z,12.20
2023-04-10T08:51:54.898Z,12.00
2023-04-10T08:52:54.841Z,12.00
2023-04-10T08:53:55.000Z,11.50
2023-04-10T08:54:54.824Z,11.40
2023-04-10T08:55:54.833Z,11.80
2023-04-10T08:56:54.826Z,11.60
2023-04-10T08:58:01.075Z,11.00
2023-04-10T08:58:55.796Z,10.70
2023-04-10T08:59:54.815Z,11.90
2023-04-10T09:00:54.819Z,11.40
2023-04-10T09:01:54.892Z,11.70
2023-04-10T09:02:54.947Z,11.50
2023-04-10T09:03:55.127Z,11.40
2023-04-10T09:04:54.978Z,10.70
2023-04-10T09:05:54.765Z,11.50
2023-04-10T09:06:54.753Z,10.90
2023-04-10T09:07:54.805Z,10.90
2023-04-10T09:08:54.757Z,11.60
2023-04-10T09:09:54.763Z,10.60
2023-04-10T09:10:56.328Z,11.40
2023-04-10T09:11:54.729Z,11.10
2023-04-10T09:12:54.749Z,11.30
2023-04-10T09:13:54.890Z,10.70
2023-04-10T09:14:54.703Z,11.30
2023-04-10T09:15:54.812Z,11.10
2023-04-10T09:16:54.685Z,10.90
2023-04-10T09:17:54.724Z,11.30
2023-04-10T09:18:54.666Z,11.30
2023-04-10T09:19:54.702Z,11.90
2023-04-10T09:20:54.635Z,10.90
2023-04-10T09:21:54.690Z,10.60
2023-04-10T09:22:54.641Z,10.70
2023-04-10T09:23:54.942Z,11.50
2023-04-10T09:24:54.648Z,10.70
2023-04-10T09:25:54.621Z,10.80
2023-04-10T09:26:54.584Z,10.70
2023-04-10T09:27:54.603Z,10.60
2023-04-10T09:28:54.571Z,10.60
2023-04-10T09:29:54.584Z,10.30
2023-04-10T09:30:54.619Z,10.10
2023-04-10T09:31:54.602Z,10.60
2023-04-10T09:32:54.621Z,9.80
2023-04-10T09:33:54.695Z,9.30
2023-04-10T09:34:54.543Z,9.30
2023-04-10T09:35:54.536Z,9.10
2023-04-10T09:36:54.516Z,9.40
2023-04-10T09:37:54.577Z,8.80
2023-04-10T09:38:54.506Z,9.20
2023-04-10T09:39:54.529Z,8.90
2023-04-10T09:40:54.938Z,8.90
2023-04-10T09:41:54.510Z,8.90
2023-04-10T09:42:54.471Z,8.70
2023-04-10T09:43:54.768Z,8.50
2023-04-10T09:44:54.466Z,8.00
2023-04-10T09:45:54.500Z,8.50
2023-04-10T09:46:54.722Z,8.10
2023-04-10T09:47:54.530Z,7.30
2023-04-10T09:48:54.433Z,7.30
2023-04-10T09:49:54.465Z,6.50
2023-04-10T09:50:54.417Z,7.20
2023-04-10T09:51:54.492Z,6.90
2023-04-10T09:52:54.437Z,6.50
2023-04-10T09:53:54.531Z,6.40
2023-04-10T09:54:54.441Z,6.50
2023-04-10T09:55:54.400Z,7.00
2023-04-10T09:56:54.379Z,6.20
2023-04-10T09:57:54.401Z,7.00
2023-04-10T09:58:54.564Z,7.10
2023-04-10T09:59:54.425Z,6.60
2023-04-10T10:00:54.359Z,6.10
2023-04-10T10:01:54.425Z,6.50
2023-04-10T10:02:54.510Z,6.40
2023-04-10T10:03:54.434Z,6.10
2023-04-10T10:04:54.370Z,6.90
2023-04-10T10:05:54.337Z,6.90
2023-04-10T10:06:54.322Z,7.20
2023-04-10T10:07:54.305Z,7.10
2023-04-10T10:08:54.568Z,7.10
2023-04-10T10:09:54.339Z,6.80
2023-04-10T10:10:54.310Z,6.40
2023-04-10T10:11:54.295Z,6.10
2023-04-10T10:12:54.295Z,6.70
2023-04-10T10:13:54.320Z,6.60
2023-04-10T10:14:54.255Z,6.10
2023-04-10T10:15:54.289Z,6.10
2023-04-10T10:16:54.267Z,6.10
2023-04-10T10:17:54.279Z,6.10
2023-04-10T10:18:54.483Z,6.50
2023-04-10T10:19:54.217Z,6.40
2023-04-10T10:20:54.211Z,5.50
2023-04-10T10:21:54.231Z,6.20
2023-04-10T10:22:54.198Z,8.00
2023-04-10T10:23:54.250Z,7.80
2023-04-10T10:24:54.172Z,6.10
2023-04-10T10:25:54.178Z,5.60
2023-04-10T10:26:54.155Z,5.20
2023-04-10T10:27:54.186Z,5.20
2023-04-10T10:28:54.490Z,5.30
2023-04-10T10:29:54.145Z,5.80
2023-04-10T10:30:54.134Z,5.30
2023-04-10T10:31:54.284Z,5.30
2023-04-10T10:32:54.164Z,5.20
2023-04-10T10:33:54.143Z,5.50
2023-04-10T10:34:54.101Z,5.50
2023-04-10T10:35:54.105Z,5.90
2023-04-10T10:36:54.120Z,5.60
2023-04-10T10:37:54.109Z,5.50
2023-04-10T10:38:54.278Z,5.40
2023-04-10T10:39:54.087Z,5.40
2023-04-10T10:40:54.057Z,5.40
2023-04-10T10:41:54.069Z,5.10
2023-04-10T10:42:54.036Z,5.00
2023-04-10T10:43:54.063Z,4.50
2023-04-10T10:44:54.053Z,4.20
2023-04-10T10:45:54.063Z,4.50
2023-04-10T10:46:54.021Z,5.10
2023-04-10T10:47:54.036Z,4.90
2023-04-10T10:48:54.188Z,4.50
2023-04-10T10:49:54.054Z,4.70
2023-04-10T10:50:54.047Z,4.60
2023-04-10T10:51:53.994Z,4.90
2023-04-10T10:52:53.980Z,4.80
2023-04-10T10:53:53.979Z,4.60
2023-04-10T10:54:59.425Z,4.60
2023-04-10T10:55:54.989Z,4.20
2023-04-10T10:56:53.928Z,4.50
2023-04-10T10:57:53.959Z,4.50
2023-04-10T10:58:54.261Z,4.60
2023-04-10T10:59:53.922Z,4.60
2023-04-10T11:00:53.913Z,4.40
2023-04-10T11:01:54.103Z,4.40
2023-04-10T11:02:54.014Z,4.60
2023-04-10T11:03:54.083Z,4.30
2023-04-10T11:04:53.892Z,6.40
2023-04-10T11:05:53.903Z,6.10
2023-04-10T11:06:53.896Z,7.40
2023-04-10T11:07:53.895Z,7.90
2023-04-10T11:08:54.076Z,8.60
2023-04-10T11:09:53.887Z,10.80
2023-04-10T11:10:53.835Z,7.30
2023-04-10T11:11:53.848Z,5.20
2023-04-10T11:12:53.844Z,4.50
2023-04-10T11:13:53.862Z,4.40
2023-04-10T11:14:53.798Z,4.20
2023-04-10T11:15:53.826Z,4.30
2023-04-10T11:16:53.848Z,4.30
2023-04-10T11:17:53.835Z,4.50
2023-04-10T11:19:06.261Z,4.40
2023-04-10T11:19:53.786Z,4.30
2023-04-10T11:20:53.769Z,4.30
2023-04-10T11:21:53.788Z,4.80
2023-04-10T11:22:53.741Z,4.90
2023-04-10T11:23:53.779Z,5.00
2023-04-10T11:24:53.736Z,4.70
2023-04-10T11:25:53.799Z,4.50
2023-04-10T11:26:53.716Z,4.30
2023-04-10T11:27:53.730Z,3.80
2023-04-10T11:28:53.899Z,3.90
2023-04-10T11:29:53.702Z,4.50
2023-04-10T11:30:53.719Z,4.90
2023-04-10T11:31:53.746Z,5.10
2023-04-10T11:32:53.712Z,4.80
2023-04-10T11:33:53.686Z,4.20
2023-04-10T11:34:53.649Z,4.00
2023-04-10T11:35:53.765Z,6.50
2023-04-10T11:36:53.658Z,5.40
2023-04-10T11:37:53.683Z,5.40
2023-04-10T11:38:53.946Z,5.50
2023-04-10T11:39:53.658Z,5.60
2023-04-10T11:40:53.610Z,5.90
2023-04-10T11:41:53.759Z,6.00
2023-04-10T11:42:53.601Z,5.70
2023-04-10T11:43:53.612Z,7.20
2023-04-10T11:44:53.620Z,6.60
2023-04-10T11:45:53.626Z,4.60
2023-04-10T11:46:53.576Z,4.50
2023-04-10T11:47:53.606Z,4.40
2023-04-10T11:48:53.673Z,4.40
2023-04-10T11:49:53.570Z,4.90
2023-04-10T11:50:53.550Z,4.70
2023-04-10T11:51:53.556Z,4.70
2023-04-10T11:52:55.267Z,4.70
2023-04-10T11:53:53.560Z,4.50
2023-04-10T11:54:53.543Z,4.10
2023-04-10T11:55:53.529Z,4.30
2023-04-10T11:56:53.496Z,4.30
2023-04-10T11:57:53.501Z,4.00
2023-04-10T11:58:53.777Z,4.50
2023-04-10T11:59:53.509Z,4.30
2023-04-10T12:00:53.487Z,4.40
2023-04-10T12:01:53.523Z,4.40
2023-04-10T12:02:53.813Z,4.30
2023-04-10T12:03:53.590Z,4.40
2023-04-10T12:04:53.491Z,4.20
2023-04-10T12:05:53.463Z,4.60
2023-04-10T12:06:53.454Z,4.20
2023-04-10T12:07:53.439Z,4.10
2023-04-10T12:08:53.929Z,4.00
2023-04-10T12:09:53.448Z,4.30
2023-04-10T12:10:53.431Z,4.00
2023-04-10T12:11:53.462Z,3.90
2023-04-10T12:12:53.390Z,4.10
2023-04-10T12:13:53.383Z,4.40
2023-04-10T12:14:53.369Z,3.90
2023-04-10T12:15:53.556Z,4.00
2023-04-10T12:16:53.352Z,4.10
2023-04-10T12:17:53.416Z,4.30
2023-04-10T12:18:53.584Z,4.20
2023-04-10T12:19:53.368Z,4.10
2023-04-10T12:22:00.182Z,4.10
2023-04-10T12:23:00.198Z,3.80
2023-04-10T12:24:00.163Z,4.10
2023-04-10T12:25:00.170Z,4.40
2023-04-10T12:26:00.192Z,4.30
2023-04-10T12:27:01.137Z,4.00
2023-04-10T12:28:00.163Z,3.70
2023-04-10T12:29:00.159Z,3.70
2023-04-10T12:30:00.180Z,3.70
2023-04-10T12:31:00.165Z,3.70
2023-04-10T12:32:01.061Z,3.70
2023-04-10T12:33:00.181Z,3.90
2023-04-10T12:34:00.153Z,3.50
2023-04-10T12:35:00.163Z,3.50
2023-04-10T12:36:00.150Z,3.70
2023-04-10T12:37:00.101Z,3.80
2023-04-10T12:38:00.104Z,3.80
2023-04-10T12:39:00.134Z,4.10
2023-04-10T12:40:00.070Z,4.20
2023-04-10T12:41:00.059Z,4.00
2023-04-10T12:42:00.104Z,3.80
2023-04-10T12:43:00.244Z,3.90
2023-04-10T12:44:00.042Z,3.80
2023-04-10T12:45:00.043Z,4.10
2023-04-10T12:46:00.066Z,3.60
2023-04-10T12:47:00.044Z,4.20
2023-04-10T12:48:00.041Z,3.70
2023-04-10T12:49:00.014Z,3.60
2023-04-10T12:49:59.987Z,4.10
2023-04-10T12:50:59.995Z,3.70
2023-04-10T12:52:00.008Z,3.90
2023-04-10T12:52:59.991Z,3.90
2023-04-10T12:53:59.965Z,4.10
2023-04-10T12:54:59.979Z,3.60
2023-04-10T12:55:59.932Z,3.70
2023-04-10T12:56:59.965Z,4.00
2023-04-10T12:57:59.922Z,3.70
2023-04-10T12:58:59.949Z,3.60
2023-04-10T12:59:59.910Z,4.10
2023-04-10T13:00:59.920Z,3.70
2023-04-10T13:02:00.006Z,3.80
2023-04-10T13:03:00.138Z,4.20